Time;durP1;ratioP1;P1;durP2;ratioP2;P2;SDS_P1;SDS_P2;PMS_P1;PMS_P2;Temp;Humidity;BMP_temperature;BMP_pressure;BME280_temperature;BME280_humidity;BME280_pressure;Samples;Min_cycle;Max_cycle;Signal;HPM_P1;HPM_P2
2023/01/07 00:01:22;;;;;;;;;;;;;;;;;;4998441;28;4631;-60
2023/01/07 00:03:48;;;;;;;;;;;;;;;;;;5004873;28;5200;-61
2023/01/07 00:06:13;;;;;;;;;;;;;;;;;;4998272;28;4562;-61
2023/01/07 00:08:39;;;;;;;;;;;;;;;;;;4997251;28;5179;-60
2023/01/07 00:11:05;;;;;;;;;;;;;;;;;;4998816;28;3451;-60
2023/01/07 00:13:30;;;;;;;;;;;;;;;;;;4992369;28;4544;-59
2023/01/07 00:15:56;;;;;;;;;;;;;;;;;;5000767;28;5167;-59
2023/01/07 00:18:22;;;;;;;;;;;;;;;;;;5004230;28;4534;-59
2023/01/07 00:20:47;;;;;;;;;;;;;;;;;;5003308;28;4695;-59
2023/01/07 00:23:12;;;;;;;;;;;;;;;;;;4995813;28;3490;-59
2023/01/07 00:25:37;;;;;;;;;;;;;;;;;;5001216;28;4982;-57
2023/01/07 00:28:03;;;;;;;;;;;;;;;;;;4997824;28;4505;-58
2023/01/07 00:30:28;;;;;;;;;;;;;;;;;;4992130;28;5188;-60
2023/01/07 00:35:24;;;;;;;;;;;;;;;;;;4995133;28;5145;-58
2023/01/07 00:37:50;;;;;;;;;;;;;;;;;;4999442;28;3574;-61
2023/01/07 00:40:16;;;;;;;;;;;;;;;;;;5005827;28;5046;-60
2023/01/07 00:42:53;;;;;;;;;;;;;;;;;;4989135;28;4663;-59
2023/01/07 00:45:19;;;;;;;;;;;;;;;;;;4983763;28;5097;-60
2023/01/07 00:47:44;;;;;;;;;;;;;;;;;;4977600;28;5162;-60
2023/01/07 00:50:09;;;;;;;;;;;;;;;;;;4986474;28;3336;-60
2023/01/07 00:52:35;;;;;;;;;;;;;;;;;;4982081;28;4426;-59
2023/01/07 00:55:00;;;;;;;;;;;;;;;;;;4976441;28;4961;-59
2023/01/07 00:57:25;;;;;;;;;;;;;;;;;;4988388;28;4984;-60
2023/01/07 00:59:51;;;;;;;;;;;;;;;;;;4996411;28;5096;-60
2023/01/07 01:02:16;;;;;;;;;;;;;;;;;;4984591;28;5070;-60
2023/01/07 01:04:41;;;;;;;;;;;;;;;;;;5002709;28;3383;-59
2023/01/07 01:07:06;;;;;;;;;;;;;;;;;;5005786;28;4601;-60
2023/01/07 01:09:31;;;;;;;;;;;;;;;;;;5003503;28;4652;-60
2023/01/07 01:11:57;;;;;;;;;;;;;;;;;;5005613;28;5361;-58
2023/01/07 01:14:22;;;;;;;;;;;;;;;;;;5002322;28;5398;-60
2023/01/07 01:16:47;;;;;;;;;;;;;;;;;;5004997;28;3388;-59
2023/01/07 01:19:13;;;;;;;;;;;;;;;;;;4997697;28;5040;-60
2023/01/07 01:21:39;;;;;;;;;;;;;;;;;;5005760;28;4505;-60
2023/01/07 01:24:04;;;;;;;;;;;;;;;;;;5001439;28;6211;-59
2023/01/07 01:26:29;;;;;;;;;;;;;;;;;;5004204;28;5148;-59
2023/01/07 01:28:55;;;;;;;;;;;;;;;;;;5001828;28;3542;-59
2023/01/07 01:31:20;;;;;;;;;;;;;;;;;;5004115;28;4565;-60
2023/01/07 01:33:45;;;;;;;;;;;;;;;;;;5005004;28;4768;-59
2023/01/07 01:36:11;;;;;;;;;;;;;;;;;;5001399;28;4941;-60
2023/01/07 01:38:37;;;;;;;;;;;;;;;;;;5003476;28;5044;-59
2023/01/07 01:41:02;;;;;;;;;;;;;;;;;;5003503;28;3455;-59
2023/01/07 01:43:35;;;;;;;;;;;;;;;;;;5019320;28;4939;-58
2023/01/07 01:46:18;;;;;;;;;;;;;;;;;;4992338;28;5305;-60
2023/01/07 01:48:48;;;;;;;;;;;;;;;;;;4986235;28;5092;-59
2023/01/07 01:51:13;;;;;;;;;;;;;;;;;;4987785;28;4911;-60
2023/01/07 01:53:38;;;;;;;;;;;;;;;;;;4984996;28;5037;-59
2023/01/07 01:56:06;;;;;;;;;;;;;;;;;;4984064;28;3416;-60
2023/01/07 01:58:36;;;;;;;;;;;;;;;;;;4995212;28;5073;-60
2023/01/07 02:01:01;;;;;;;;;;;;;;;;;;5002580;28;5132;-60
2023/01/07 02:03:27;;;;;;;;;;;;;;;;;;5000216;28;5043;-60
2023/01/07 02:05:53;;;;;;;;;;;;;;;;;;4995721;28;5125;-60
2023/01/07 02:08:21;;;;;;;;;;;;;;;;;;4997270;28;5174;-59
2023/01/07 02:10:47;;;;;;;;;;;;;;;;;;4999750;28;3324;-59
2023/01/07 02:13:21;;;;;;;;;;;;;;;;;;5005435;28;5049;-60
2023/01/07 02:15:46;;;;;;;;;;;;;;;;;;5001893;28;4683;-61
2023/01/07 02:18:31;;;;;;;;;;;;;;;;;;5004530;28;4613;-60
2023/01/07 02:20:59;;;;;;;;;;;;;;;;;;5006434;28;5090;-60
2023/01/07 02:23:34;;;;;;;;;;;;;;;;;;5005130;28;4623;-60
2023/01/07 02:26:05;;;;;;;;;;;;;;;;;;5003727;28;1910;-60
2023/01/07 02:28:30;;;;;;;;;;;;;;;;;;5002568;28;4488;-61
2023/01/07 02:31:10;;;;;;;;;;;;;;;;;;5006785;28;4995;-60
2023/01/07 02:33:39;;;;;;;;;;;;;;;;;;5005506;28;5054;-60
2023/01/07 02:36:18;;;;;;;;;;;;;;;;;;4997382;28;5112;-60
2023/01/07 02:38:59;;;;;;;;;;;;;;;;;;4995626;28;4687;-60
2023/01/07 02:41:27;;;;;;;;;;;;;;;;;;4990217;28;4634;-60
2023/01/07 02:44:03;;;;;;;;;;;;;;;;;;5006407;28;3572;-60
2023/01/07 02:46:30;;;;;;;;;;;;;;;;;;4984067;28;4636;-60
2023/01/07 02:48:59;;;;;;;;;;;;;;;;;;4996223;28;5154;-59
2023/01/07 02:51:34;;;;;;;;;;;;;;;;;;5003723;28;5251;-60
2023/01/07 02:53:59;;;;;;;;;;;;;;;;;;5002264;28;4753;-60
2023/01/07 02:56:35;;;;;;;;;;;;;;;;;;5000455;28;5028;-60
2023/01/07 02:59:07;;;;;;;;;;;;;;;;;;5007208;28;3372;-59
2023/01/07 03:01:39;;;;;;;;;;;;;;;;;;4983740;28;4485;-60
2023/01/07 03:04:04;;;;;;;;;;;;;;;;;;4985456;28;4902;-61
2023/01/07 03:06:49;;;;;;;;;;;;;;;;;;4983992;28;4743;-59
2023/01/07 03:09:23;;;;;;;;;;;;;;;;;;4975412;28;5148;-59
2023/01/07 03:12:07;;;;;;;;;;;;;;;;;;4983707;28;5009;-60
2023/01/07 03:14:47;;;;;;;;;;;;;;;;;;4988006;28;4899;-59
2023/01/07 03:17:14;;;;;;;;;;;;;;;;;;5013219;28;3572;-60
2023/01/07 03:19:40;;;;;;;;;;;;;;;;;;5000304;28;4405;-60
2023/01/07 03:22:06;;;;;;;;;;;;;;;;;;5002787;28;4608;-60
2023/01/07 03:24:31;;;;;;;;;;;;;;;;;;5007281;28;4550;-60
2023/01/07 03:26:57;;;;;;;;;;;;;;;;;;5000999;28;4534;-59
2023/01/07 03:29:22;;;;;;;;;;;;;;;;;;5000399;28;5319;-59
2023/01/07 03:32:14;;;;;;;;;;;;;;;;;;5004853;28;3479;-59
2023/01/07 03:34:39;;;;;;;;;;;;;;;;;;4995684;28;4855;-59
2023/01/07 03:37:06;;;;;;;;;;;;;;;;;;4988615;28;4602;-60
2023/01/07 03:39:32;;;;;;;;;;;;;;;;;;4986513;28;4950;-59
2023/01/07 03:44:41;;;;;;;;;;;;;;;;;;4980652;28;5013;-59
2023/01/07 03:47:06;;;;;;;;;;;;;;;;;;4989616;28;1231;-59
2023/01/07 03:49:31;;;;;;;;;;;;;;;;;;4991651;28;5045;-59
2023/01/07 03:51:56;;;;;;;;;;;;;;;;;;4987954;28;4429;-59
2023/01/07 03:54:24;;;;;;;;;;;;;;;;;;4979003;28;5223;-59
2023/01/07 03:56:50;;;;;;;;;;;;;;;;;;4996145;28;5080;-60
2023/01/07 03:59:15;;;;;;;;;;;;;;;;;;4970556;28;4986;-58
2023/01/07 04:01:40;;;;;;;;;;;;;;;;;;4986141;28;3282;-60
2023/01/07 04:04:05;;;;;;;;;;;;;;;;;;4984378;28;4903;-62
2023/01/07 04:06:31;;;;;;;;;;;;;;;;;;4982569;28;5080;-61
2023/01/07 04:08:56;;;;;;;;;;;;;;;;;;4984052;28;4736;-59
2023/01/07 04:11:21;;;;;;;;;;;;;;;;;;4981658;28;5310;-58
2023/01/07 04:13:46;;;;;;;;;;;;;;;;;;4976797;28;3518;-61
2023/01/07 04:16:12;;;;;;;;;;;;;;;;;;4980241;28;5488;-61
2023/01/07 04:18:37;;;;;;;;;;;;;;;;;;4980032;28;5197;-61
2023/01/07 04:21:02;;;;;;;;;;;;;;;;;;4977330;28;4684;-61
2023/01/07 04:23:28;;;;;;;;;;;;;;;;;;4983154;28;4647;-61
2023/01/07 04:25:53;;;;;;;;;;;;;;;;;;4977262;28;3413;-62
2023/01/07 04:28:18;;;;;;;;;;;;;;;;;;4979135;28;4988;-62
2023/01/07 04:30:43;;;;;;;;;;;;;;;;;;4979998;28;4602;-61
2023/01/07 04:33:09;;;;;;;;;;;;;;;;;;4980441;28;5101;-62
2023/01/07 04:35:34;;;;;;;;;;;;;;;;;;4982352;28;4594;-62
2023/01/07 04:37:59;;;;;;;;;;;;;;;;;;4981264;28;3246;-60
2023/01/07 04:40:25;;;;;;;;;;;;;;;;;;4981955;28;5181;-62
2023/01/07 04:42:50;;;;;;;;;;;;;;;;;;4982126;28;5121;-61
2023/01/07 04:45:15;;;;;;;;;;;;;;;;;;4980896;28;4575;-60
2023/01/07 04:47:40;;;;;;;;;;;;;;;;;;4983233;28;5180;-61
2023/01/07 04:50:06;;;;;;;;;;;;;;;;;;4979196;28;3541;-62
2023/01/07 04:52:31;;;;;;;;;;;;;;;;;;4984847;28;5021;-62
2023/01/07 04:54:56;;;;;;;;;;;;;;;;;;4978805;28;5113;-61
2023/01/07 04:57:22;;;;;;;;;;;;;;;;;;4980896;28;5671;-62
2023/01/07 04:59:47;;;;;;;;;;;;;;;;;;4981951;28;4527;-60
2023/01/07 05:02:12;;;;;;;;;;;;;;;;;;4981721;28;3619;-62
2023/01/07 05:04:37;;;;;;;;;;;;;;;;;;4974764;28;4607;-58
2023/01/07 05:07:02;;;;;;;;;;;;;;;;;;4983099;28;4675;-61
2023/01/07 05:09:28;;;;;;;;;;;;;;;;;;4986381;28;4680;-62
2023/01/07 05:11:53;;;;;;;;;;;;;;;;;;4983583;28;4532;-61
2023/01/07 05:14:18;;;;;;;;;;;;;;;;;;4985516;28;5075;-60
2023/01/07 05:16:43;;;;;;;;;;;;;;;;;;4988170;28;3528;-60
2023/01/07 05:19:10;;;;;;;;;;;;;;;;;;4984880;28;4587;-61
2023/01/07 05:21:35;;;;;;;;;;;;;;;;;;4960776;28;5624;-61
2023/01/07 05:24:00;;;;;;;;;;;;;;;;;;4983319;28;5198;-61
2023/01/07 05:26:25;;;;;;;;;;;;;;;;;;4984332;28;5151;-61
2023/01/07 05:28:51;;;;;;;;;;;;;;;;;;4988497;28;3497;-61
2023/01/07 05:31:16;;;;;;;;;;;;;;;;;;4979925;28;4578;-62
2023/01/07 05:33:41;;;;;;;;;;;;;;;;;;4988413;28;4554;-61
2023/01/07 05:36:07;;;;;;;;;;;;;;;;;;4979511;28;6019;-61
2023/01/07 05:38:32;;;;;;;;;;;;;;;;;;4983260;28;5032;-60
2023/01/07 05:40:57;;;;;;;;;;;;;;;;;;4983117;28;3603;-61
2023/01/07 05:43:22;;;;;;;;;;;;;;;;;;4982882;28;5185;-61
2023/01/07 05:45:48;;;;;;;;;;;;;;;;;;4983393;28;4535;-61
2023/01/07 05:48:13;;;;;;;;;;;;;;;;;;4983399;28;4914;-61
2023/01/07 05:50:38;;;;;;;;;;;;;;;;;;4978392;28;5045;-61
2023/01/07 05:53:04;;;;;;;;;;;;;;;;;;4981495;28;3349;-60
2023/01/07 05:55:29;;;;;;;;;;;;;;;;;;4983199;28;4479;-61
2023/01/07 05:57:54;;;;;;;;;;;;;;;;;;4984434;28;4921;-61
2023/01/07 06:00:19;;;;;;;;;;;;;;;;;;4982796;28;4690;-60
2023/01/07 06:02:45;;;;;;;;;;;;;;;;;;4982077;28;4538;-62
2023/01/07 06:05:10;;;;;;;;;;;;;;;;;;4983719;28;3583;-61
2023/01/07 06:07:35;;;;;;;;;;;;;;;;;;4983829;28;4667;-60
2023/01/07 06:10:00;;;;;;;;;;;;;;;;;;4980786;28;4495;-61
2023/01/07 06:12:26;;;;;;;;;;;;;;;;;;4981018;28;5118;-60
2023/01/07 06:14:51;;;;;;;;;;;;;;;;;;4985576;28;5022;-61
2023/01/07 06:17:16;;;;;;;;;;;;;;;;;;4981506;28;4914;-61
2023/01/07 06:19:42;;;;;;;;;;;;;;;;;;4982361;28;4345;-61
2023/01/07 06:22:07;;;;;;;;;;;;;;;;;;4977981;28;5005;-61
2023/01/07 06:24:32;;;;;;;;;;;;;;;;;;4989630;28;5034;-60
2023/01/07 06:26:57;;;;;;;;;;;;;;;;;;4993384;28;5035;-61
2023/01/07 06:29:23;;;;;;;;;;;;;;;;;;4982882;28;5035;-61
2023/01/07 06:31:48;;;;;;;;;;;;;;;;;;4986576;28;3296;-61
2023/01/07 06:34:13;;;;;;;;;;;;;;;;;;4979997;28;5066;-62
2023/01/07 06:36:38;;;;;;;;;;;;;;;;;;4987188;28;5178;-58
2023/01/07 06:39:04;;;;;;;;;;;;;;;;;;4978730;28;5301;-61
2023/01/07 06:41:29;;;;;;;;;;;;;;;;;;4980609;28;5022;-62
2023/01/07 06:43:54;;;;;;;;;;;;;;;;;;4980573;28;1098;-61
2023/01/07 06:46:19;;;;;;;;;;;;;;;;;;4976254;28;5010;-60
2023/01/07 06:48:44;;;;;;;;;;;;;;;;;;4983051;28;5354;-61
2023/01/07 06:51:10;;;;;;;;;;;;;;;;;;4985482;28;5029;-60
2023/01/07 06:53:35;;;;;;;;;;;;;;;;;;4980439;28;5167;-61
2023/01/07 06:56:00;;;;;;;;;;;;;;;;;;4987593;28;3432;-61
2023/01/07 06:58:26;;;;;;;;;;;;;;;;;;4983012;28;5074;-61
2023/01/07 07:00:51;;;;;;;;;;;;;;;;;;4979954;28;5597;-61
2023/01/07 07:03:16;;;;;;;;;;;;;;;;;;4983566;28;5018;-62
2023/01/07 07:05:41;;;;;;;;;;;;;;;;;;4978345;28;5187;-61
2023/01/07 07:08:07;;;;;;;;;;;;;;;;;;4979579;28;3314;-61
2023/01/07 07:10:32;;;;;;;;;;;;;;;;;;4981909;28;4643;-60
2023/01/07 07:12:57;;;;;;;;;;;;;;;;;;4980119;28;5207;-60
2023/01/07 07:15:23;;;;;;;;;;;;;;;;;;4980247;28;4902;-61
2023/01/07 07:17:48;;;;;;;;;;;;;;;;;;4980211;28;4785;-60
2023/01/07 07:20:13;;;;;;;;;;;;;;;;;;4982991;28;4527;-61
2023/01/07 07:22:43;;;;;;;;;;;;;;;;;;4973744;28;4559;-60
2023/01/07 07:25:08;;;;;;;;;;;;;;;;;;4981134;28;4513;-61
2023/01/07 07:27:33;;;;;;;;;;;;;;;;;;4991683;28;4498;-60
2023/01/07 07:29:59;;;;;;;;;;;;;;;;;;4977063;28;4711;-61
2023/01/07 07:32:27;;;;;;;;;;;;;;;;;;4979692;28;4676;-60
2023/01/07 07:34:52;;;;;;;;;;;;;;;;;;4979295;28;3565;-61
2023/01/07 07:37:17;;;;;;;;;;;;;;;;;;4982891;28;5082;-61
2023/01/07 07:39:43;;;;;;;;;;;;;;;;;;4978267;28;5263;-61
2023/01/07 07:42:08;;;;;;;;;;;;;;;;;;4979353;28;4826;-61
2023/01/07 07:44:33;;;;;;;;;;;;;;;;;;4978350;28;4546;-61
2023/01/07 07:46:58;;;;;;;;;;;;;;;;;;4975325;28;3477;-61
2023/01/07 07:49:24;;;;;;;;;;;;;;;;;;4992026;28;5139;-61
2023/01/07 07:51:49;;;;;;;;;;;;;;;;;;4978213;28;5134;-60
2023/01/07 07:54:14;;;;;;;;;;;;;;;;;;4979253;28;4467;-61
2023/01/07 07:56:39;;;;;;;;;;;;;;;;;;4981099;28;5237;-61
2023/01/07 07:59:05;;;;;;;;;;;;;;;;;;4997843;28;3523;-61
2023/01/07 08:01:30;;;;;;;;;;;;;;;;;;4985872;28;4603;-61
2023/01/07 08:03:55;;;;;;;;;;;;;;;;;;4983351;28;5057;-61
2023/01/07 08:06:20;;;;;;;;;;;;;;;;;;4977019;28;5095;-61
2023/01/07 08:08:46;;;;;;;;;;;;;;;;;;4975936;28;4947;-61
2023/01/07 08:11:11;;;;;;;;;;;;;;;;;;4977725;28;4165;-61
2023/01/07 08:13:36;;;;;;;;;;;;;;;;;;4970926;28;5200;-61
2023/01/07 08:16:01;;;;;;;;;;;;;;;;;;4977167;28;5204;-61
2023/01/07 08:18:27;;;;;;;;;;;;;;;;;;4974371;28;5099;-59
2023/01/07 08:20:54;;;;;;;;;;;;;;;;;;4980617;28;5318;-61
2023/01/07 08:23:19;;;;;;;;;;;;;;;;;;4975410;28;4574;-60
2023/01/07 08:25:44;;;;;;;;;;;;;;;;;;4980631;28;3435;-62
2023/01/07 08:28:10;;;;;;;;;;;;;;;;;;4980341;28;4737;-60
2023/01/07 08:30:35;;;;;;;;;;;;;;;;;;4973165;28;4523;-60
2023/01/07 08:33:02;;;;;;;;;;;;;;;;;;4973595;28;5037;-59
2023/01/07 08:35:27;;;;;;;;;;;;;;;;;;4981597;28;4793;-60
2023/01/07 08:37:59;;;;;;;;;;;;;;;;;;4978850;28;3259;-61
2023/01/07 08:40:24;;;;;;;;;;;;;;;;;;4973990;28;5293;-60
2023/01/07 08:42:49;;;;;;;;;;;;;;;;;;4979941;28;4985;-61
2023/01/07 08:45:15;;;;;;;;;;;;;;;;;;4979623;28;5566;-61
2023/01/07 08:47:40;;;;;;;;;;;;;;;;;;4979177;28;5340;-61
2023/01/07 08:50:05;;;;;;;;;;;;;;;;;;4982381;28;3325;-61
2023/01/07 08:52:31;;;;;;;;;;;;;;;;;;4980960;28;4394;-59
2023/01/07 08:54:56;;;;;;;;;;;;;;;;;;4979587;28;5012;-61
2023/01/07 08:57:21;;;;;;;;;;;;;;;;;;4974553;28;5204;-61
2023/01/07 08:59:46;;;;;;;;;;;;;;;;;;4981661;28;5258;-61
2023/01/07 09:02:12;;;;;;;;;;;;;;;;;;4979204;28;3338;-61
2023/01/07 09:04:37;;;;;;;;;;;;;;;;;;4976563;28;5087;-61
2023/01/07 09:07:03;;;;;;;;;;;;;;;;;;4975432;28;4749;-60
2023/01/07 09:09:28;;;;;;;;;;;;;;;;;;4981600;28;5193;-60
2023/01/07 09:11:53;;;;;;;;;;;;;;;;;;4974690;28;5173;-60
2023/01/07 09:14:18;;;;;;;;;;;;;;;;;;4983633;28;4971;-59
2023/01/07 09:16:43;;;;;;;;;;;;;;;;;;4979459;28;3774;-59
2023/01/07 09:19:09;;;;;;;;;;;;;;;;;;4977586;28;5190;-60
2023/01/07 09:21:34;;;;;;;;;;;;;;;;;;4977449;28;5063;-61
2023/01/07 09:23:59;;;;;;;;;;;;;;;;;;4979229;28;5037;-61
2023/01/07 09:26:25;;;;;;;;;;;;;;;;;;4977962;28;5101;-59
2023/01/07 09:28:50;;;;;;;;;;;;;;;;;;4985193;28;3548;-60
2023/01/07 09:31:15;;;;;;;;;;;;;;;;;;4993638;28;5000;-61
2023/01/07 09:33:40;;;;;;;;;;;;;;;;;;4995384;28;4759;-59
2023/01/07 09:36:06;;;;;;;;;;;;;;;;;;4997834;28;5130;-61
2023/01/07 09:38:31;;;;;;;;;;;;;;;;;;4995074;28;5002;-60
2023/01/07 09:40:57;;;;;;;;;;;;;;;;;;5001767;28;3505;-61
2023/01/07 09:43:23;;;;;;;;;;;;;;;;;;5001277;28;5012;-60
2023/01/07 09:45:49;;;;;;;;;;;;;;;;;;5003214;28;5266;-60
2023/01/07 09:48:30;;;;;;;;;;;;;;;;;;5004239;28;4636;-60
2023/01/07 09:51:14;;;;;;;;;;;;;;;;;;4996382;28;5337;-60
2023/01/07 09:53:40;;;;;;;;;;;;;;;;;;4998272;28;4979;-60
2023/01/07 09:56:06;;;;;;;;;;;;;;;;;;5007136;28;3683;-61
2023/01/07 09:58:32;;;;;;;;;;;;;;;;;;5005609;28;5076;-59
2023/01/07 10:00:59;;;;;;;;;;;;;;;;;;5005245;28;5258;-60
2023/01/07 10:03:31;;;;;;;;;;;;;;;;;;4995038;28;4570;-61
2023/01/07 10:06:16;;;;;;;;;;;;;;;;;;5004316;28;5113;-60
2023/01/07 10:09:08;;;;;;;;;;;;;;;;;;4998580;28;5093;-60
2023/01/07 10:11:33;;;;;;;;;;;;;;;;;;4997132;28;5125;-60
2023/01/07 10:14:17;;;;;;;;;;;;;;;;;;5001133;28;3657;-61
2023/01/07 10:16:45;;;;;;;;;;;;;;;;;;5002405;28;4611;-60
2023/01/07 10:19:19;;;;;;;;;;;;;;;;;;4982566;28;5069;-66
2023/01/07 10:21:54;;;;;;;;;;;;;;;;;;4980243;28;5188;-70
2023/01/07 10:24:24;;;;;;;;;;;;;;;;;;4980265;28;5243;-69
2023/01/07 10:26:50;;;;;;;;;;;;;;;;;;4984231;28;4526;-66
2023/01/07 10:29:18;;;;;;;;;;;;;;;;;;4970747;28;5167;-63
2023/01/07 10:31:43;;;;;;;;;;;;;;;;;;4983225;28;3564;-74
2023/01/07 10:34:11;;;;;;;;;;;;;;;;;;4978464;28;4517;-73
2023/01/07 10:36:38;;;;;;;;;;;;;;;;;;4978445;28;4987;-62
2023/01/07 10:39:09;;;;;;;;;;;;;;;;;;4977179;28;5270;-75
2023/01/07 10:41:53;;;;;;;;;;;;;;;;;;4983790;28;5208;-71
2023/01/07 10:44:25;;;;;;;;;;;;;;;;;;4977074;28;5103;-64
2023/01/07 10:47:02;;;;;;;;;;;;;;;;;;4982791;28;3472;-72
2023/01/07 10:49:27;;;;;;;;;;;;;;;;;;4981442;28;5033;-70
2023/01/07 10:51:52;;;;;;;;;;;;;;;;;;4973647;28;4717;-69
2023/01/07 10:54:33;;;;;;;;;;;;;;;;;;4982711;28;5095;-70
2023/01/07 10:57:02;;;;;;;;;;;;;;;;;;4974282;28;5038;-71
2023/01/07 10:59:28;;;;;;;;;;;;;;;;;;4981500;28;4892;-70
2023/01/07 11:01:54;;;;;;;;;;;;;;;;;;4971177;28;3609;-68
2023/01/07 11:04:19;;;;;;;;;;;;;;;;;;4978316;28;4587;-71
2023/01/07 11:06:47;;;;;;;;;;;;;;;;;;4981927;28;5031;-70
2023/01/07 11:09:14;;;;;;;;;;;;;;;;;;4981249;28;5071;-64
2023/01/07 11:11:39;;;;;;;;;;;;;;;;;;4977953;28;5020;-69
2023/01/07 11:14:25;;;;;;;;;;;;;;;;;;4981193;28;3340;-68
2023/01/07 11:16:51;;;;;;;;;;;;;;;;;;4983924;28;4376;-70
2023/01/07 11:19:16;;;;;;;;;;;;;;;;;;4978302;28;5116;-70
2023/01/07 11:21:45;;;;;;;;;;;;;;;;;;4980550;28;4893;-64
2023/01/07 11:24:30;;;;;;;;;;;;;;;;;;4988858;28;4709;-68
2023/01/07 11:26:58;;;;;;;;;;;;;;;;;;4979196;28;5180;-64
2023/01/07 11:29:28;;;;;;;;;;;;;;;;;;4980858;28;4504;-67
2023/01/07 11:31:54;;;;;;;;;;;;;;;;;;4984762;28;3451;-64
2023/01/07 11:34:26;;;;;;;;;;;;;;;;;;4982091;28;4840;-63
2023/01/07 11:36:52;;;;;;;;;;;;;;;;;;4985593;28;5068;-64
2023/01/07 11:39:25;;;;;;;;;;;;;;;;;;4979230;28;5563;-63
2023/01/07 11:42:37;;;;;;;;;;;;;;;;;;4987156;28;5216;-61
2023/01/07 11:44:45;;;;;;;;;;;;;;;;;;4993383;28;5252;-64
2023/01/07 11:47:12;;;;;;;;;;;;;;;;;;4999597;28;3738;-64
2023/01/07 11:49:38;;;;;;;;;;;;;;;;;;4985732;28;5074;-66
2023/01/07 11:52:04;;;;;;;;;;;;;;;;;;4995772;28;5218;-63
2023/01/07 11:54:30;;;;;;;;;;;;;;;;;;5001986;28;4907;-62
2023/01/07 11:57:11;;;;;;;;;;;;;;;;;;4994536;28;4628;-65
2023/01/07 11:59:36;;;;;;;;;;;;;;;;;;4978382;28;4516;-71
2023/01/07 12:02:02;;;;;;;;;;;;;;;;;;4979610;28;3706;-71
2023/01/07 12:04:31;;;;;;;;;;;;;;;;;;4981897;28;4423;-66
2023/01/07 12:06:57;;;;;;;;;;;;;;;;;;4993958;28;5207;-71
2023/01/07 12:09:23;;;;;;;;;;;;;;;;;;4991988;28;4739;-66
2023/01/07 12:11:48;;;;;;;;;;;;;;;;;;4976588;28;4681;-67
2023/01/07 12:14:19;;;;;;;;;;;;;;;;;;4971969;28;3572;-64
2023/01/07 12:16:45;;;;;;;;;;;;;;;;;;4998986;28;4347;-64
2023/01/07 12:19:22;;;;;;;;;;;;;;;;;;5007810;28;4997;-66
2023/01/07 12:21:50;;;;;;;;;;;;;;;;;;4994347;28;4604;-70
2023/01/07 12:24:31;;;;;;;;;;;;;;;;;;4998952;28;4672;-64
2023/01/07 12:27:15;;;;;;;;;;;;;;;;;;5003503;28;4597;-66
2023/01/07 12:29:59;;;;;;;;;;;;;;;;;;5002075;28;5250;-66
2023/01/07 12:32:31;;;;;;;;;;;;;;;;;;4997175;28;4497;-67
2023/01/07 12:34:59;;;;;;;;;;;;;;;;;;4995240;28;3420;-67
2023/01/07 12:37:36;;;;;;;;;;;;;;;;;;5001081;28;4506;-67
2023/01/07 12:40:15;;;;;;;;;;;;;;;;;;5000157;28;4908;-60
2023/01/07 12:42:42;;;;;;;;;;;;;;;;;;5002993;28;4547;-60
2023/01/07 12:45:15;;;;;;;;;;;;;;;;;;5000813;28;5134;-68
2023/01/07 12:47:41;;;;;;;;;;;;;;;;;;5014063;28;4900;-64
2023/01/07 12:50:14;;;;;;;;;;;;;;;;;;5018467;28;3445;-60
2023/01/07 12:52:42;;;;;;;;;;;;;;;;;;5002262;28;4962;-65
2023/01/07 12:55:19;;;;;;;;;;;;;;;;;;5003477;28;5158;-60
2023/01/07 12:57:47;;;;;;;;;;;;;;;;;;5006126;28;5331;-61
2023/01/07 13:00:17;;;;;;;;;;;;;;;;;;5002778;28;5049;-60
2023/01/07 13:02:54;;;;;;;;;;;;;;;;;;4990473;28;5164;-60
2023/01/07 13:05:21;;;;;;;;;;;;;;;;;;4993637;28;5235;-61
2023/01/07 13:07:46;;;;;;;;;;;;;;;;;;5020950;28;3544;-62
2023/01/07 13:10:13;;;;;;;;;;;;;;;;;;4999947;28;4505;-61
2023/01/07 13:12:42;;;;;;;;;;;;;;;;;;5005945;28;5226;-62
2023/01/07 13:15:10;;;;;;;;;;;;;;;;;;5008085;28;4974;-61
2023/01/07 13:17:35;;;;;;;;;;;;;;;;;;5008471;28;5038;-61
2023/01/07 13:20:00;;;;;;;;;;;;;;;;;;5011046;28;4520;-60
2023/01/07 13:22:26;;;;;;;;;;;;;;;;;;5010579;28;5006;-60
2023/01/07 13:25:11;;;;;;;;;;;;;;;;;;5001238;28;5032;-62
2023/01/07 13:27:39;;;;;;;;;;;;;;;;;;5006487;28;4676;-60
2023/01/07 13:30:17;;;;;;;;;;;;;;;;;;5005476;28;4972;-61
2023/01/07 13:32:48;;;;;;;;;;;;;;;;;;5005473;28;5229;-62
2023/01/07 13:35:25;;;;;;;;;;;;;;;;;;5006101;28;3276;-62
2023/01/07 13:38:02;;;;;;;;;;;;;;;;;;5005541;28;5132;-60
2023/01/07 13:40:28;;;;;;;;;;;;;;;;;;4998434;28;4498;-62
2023/01/07 13:43:00;;;;;;;;;;;;;;;;;;5008754;28;5126;-61
2023/01/07 13:45:26;;;;;;;;;;;;;;;;;;5003181;28;5050;-62
2023/01/07 13:47:56;;;;;;;;;;;;;;;;;;5002030;28;5080;-61
2023/01/07 13:50:21;;;;;;;;;;;;;;;;;;4988356;28;5129;-61
2023/01/07 13:52:56;;;;;;;;;;;;;;;;;;5009163;28;3283;-62
2023/01/07 13:55:33;;;;;;;;;;;;;;;;;;5003383;28;4670;-62
2023/01/07 13:57:59;;;;;;;;;;;;;;;;;;5005249;28;4949;-62
2023/01/07 14:00:40;;;;;;;;;;;;;;;;;;5006287;28;5122;-62
2023/01/07 14:03:41;;;;;;;;;;;;;;;;;;5008509;28;5407;-62
2023/01/07 14:06:22;;;;;;;;;;;;;;;;;;4962815;28;5098;-62
2023/01/07 14:08:51;;;;;;;;;;;;;;;;;;4991719;28;4923;-61
2023/01/07 14:11:20;;;;;;;;;;;;;;;;;;5008785;28;4756;-62
2023/01/07 14:13:53;;;;;;;;;;;;;;;;;;5004331;28;3408;-61
2023/01/07 14:16:26;;;;;;;;;;;;;;;;;;5004687;28;5093;-61
2023/01/07 14:18:54;;;;;;;;;;;;;;;;;;5005920;28;4596;-61
2023/01/07 14:21:19;;;;;;;;;;;;;;;;;;5003663;28;5004;-61
2023/01/07 14:24:03;;;;;;;;;;;;;;;;;;4996852;28;4979;-60
2023/01/07 14:26:36;;;;;;;;;;;;;;;;;;5000178;28;5144;-59
2023/01/07 14:29:04;;;;;;;;;;;;;;;;;;4998408;28;3492;-60
2023/01/07 14:31:29;;;;;;;;;;;;;;;;;;5003133;28;4960;-62
2023/01/07 14:33:59;;;;;;;;;;;;;;;;;;5006713;28;4510;-62
2023/01/07 14:36:45;;;;;;;;;;;;;;;;;;4998629;28;5374;-61
2023/01/07 14:39:28;;;;;;;;;;;;;;;;;;5001907;28;5070;-61
2023/01/07 14:42:12;;;;;;;;;;;;;;;;;;5005836;28;5077;-60
2023/01/07 14:44:37;;;;;;;;;;;;;;;;;;5009459;28;5063;-62
2023/01/07 14:47:03;;;;;;;;;;;;;;;;;;5021075;28;1973;-61
2023/01/07 14:49:32;;;;;;;;;;;;;;;;;;5005942;28;4670;-61
2023/01/07 14:52:08;;;;;;;;;;;;;;;;;;5018685;28;4498;-62
2023/01/07 14:54:51;;;;;;;;;;;;;;;;;;5002806;28;5164;-62
2023/01/07 14:57:29;;;;;;;;;;;;;;;;;;5007854;28;4866;-62
2023/01/07 15:00:13;;;;;;;;;;;;;;;;;;5009557;28;5012;-62
2023/01/07 15:02:50;;;;;;;;;;;;;;;;;;5007502;28;5055;-61
2023/01/07 15:05:16;;;;;;;;;;;;;;;;;;5009353;28;4645;-60
2023/01/07 15:07:41;;;;;;;;;;;;;;;;;;5000017;28;3314;-62
2023/01/07 15:16:02;;;;;;;;;;;;;;;;;;5011421;28;4723;-62
2023/01/07 15:18:31;;;;;;;;;;;;;;;;;;5006476;28;5200;-62
2023/01/07 15:21:07;;;;;;;;;;;;;;;;;;5008724;28;5168;-61
2023/01/07 15:23:33;;;;;;;;;;;;;;;;;;5007236;28;4941;-61
2023/01/07 15:26:18;;;;;;;;;;;;;;;;;;5010460;28;2284;-61
2023/01/07 15:28:48;;;;;;;;;;;;;;;;;;4981981;28;4801;-60
2023/01/07 15:31:21;;;;;;;;;;;;;;;;;;5006836;28;5121;-60
2023/01/07 15:34:05;;;;;;;;;;;;;;;;;;5007036;28;4635;-59
2023/01/07 15:36:30;;;;;;;;;;;;;;;;;;5008796;28;5069;-61
2023/01/07 15:38:56;;;;;;;;;;;;;;;;;;5006526;28;4923;-60
2023/01/07 15:41:26;;;;;;;;;;;;;;;;;;5007162;28;5044;-60
2023/01/07 15:43:51;;;;;;;;;;;;;;;;;;5006923;28;1230;-60
2023/01/07 15:46:16;;;;;;;;;;;;;;;;;;5008267;28;5498;-60
2023/01/07 15:48:41;;;;;;;;;;;;;;;;;;5004229;28;5201;-60
2023/01/07 15:51:16;;;;;;;;;;;;;;;;;;5002733;28;5139;-60
2023/01/07 15:53:42;;;;;;;;;;;;;;;;;;5008189;28;5155;-60
2023/01/07 15:56:09;;;;;;;;;;;;;;;;;;5005424;28;2230;-62
2023/01/07 15:58:43;;;;;;;;;;;;;;;;;;5006385;28;4966;-60
2023/01/07 16:01:12;;;;;;;;;;;;;;;;;;5006478;28;5066;-62
2023/01/07 16:03:38;;;;;;;;;;;;;;;;;;5008160;28;4972;-62
2023/01/07 16:06:03;;;;;;;;;;;;;;;;;;5004258;28;4520;-62
2023/01/07 16:08:29;;;;;;;;;;;;;;;;;;5004960;28;5155;-61
2023/01/07 16:10:58;;;;;;;;;;;;;;;;;;5008726;28;2195;-61
2023/01/07 16:13:23;;;;;;;;;;;;;;;;;;5005788;28;5128;-62
2023/01/07 16:15:51;;;;;;;;;;;;;;;;;;5008263;28;5000;-61
2023/01/07 16:18:17;;;;;;;;;;;;;;;;;;5003257;28;5059;-62
2023/01/07 16:20:49;;;;;;;;;;;;;;;;;;5001949;28;5126;-62
2023/01/07 16:23:21;;;;;;;;;;;;;;;;;;5008713;28;1098;-61
2023/01/07 16:25:52;;;;;;;;;;;;;;;;;;5005493;28;5059;-61
2023/01/07 16:28:18;;;;;;;;;;;;;;;;;;5005792;28;4566;-61
2023/01/07 16:30:44;;;;;;;;;;;;;;;;;;5006087;28;5123;-60
2023/01/07 16:33:19;;;;;;;;;;;;;;;;;;5003254;28;5069;-62
2023/01/07 16:35:45;;;;;;;;;;;;;;;;;;5004786;28;5154;-62
2023/01/07 16:38:10;;;;;;;;;;;;;;;;;;5005501;28;3321;-61
2023/01/07 16:40:36;;;;;;;;;;;;;;;;;;5005566;28;4639;-61
2023/01/07 16:43:01;;;;;;;;;;;;;;;;;;5006176;28;4557;-62
2023/01/07 16:45:36;;;;;;;;;;;;;;;;;;5005604;28;4630;-61
2023/01/07 16:48:12;;;;;;;;;;;;;;;;;;5005528;28;5172;-61
2023/01/07 16:50:41;;;;;;;;;;;;;;;;;;5006270;28;4649;-61
2023/01/07 16:53:44;;;;;;;;;;;;;;;;;;5005067;28;2482;-61
2023/01/07 16:56:13;;;;;;;;;;;;;;;;;;4958796;28;5613;-61
2023/01/07 16:58:39;;;;;;;;;;;;;;;;;;4954015;28;4815;-61
2023/01/07 17:01:05;;;;;;;;;;;;;;;;;;4980150;28;4884;-62
2023/01/07 17:03:32;;;;;;;;;;;;;;;;;;4999479;28;5072;-61
2023/01/07 17:05:57;;;;;;;;;;;;;;;;;;4997985;28;5191;-61
2023/01/07 17:08:22;;;;;;;;;;;;;;;;;;5000304;28;4534;-61
2023/01/07 17:10:54;;;;;;;;;;;;;;;;;;5006529;28;1687;-61
2023/01/07 17:13:22;;;;;;;;;;;;;;;;;;4995378;28;5024;-61
2023/01/07 17:15:48;;;;;;;;;;;;;;;;;;5007305;28;4564;-61
2023/01/07 17:18:13;;;;;;;;;;;;;;;;;;4997496;28;4995;-61
2023/01/07 17:20:48;;;;;;;;;;;;;;;;;;5004759;28;4452;-61
2023/01/07 17:23:26;;;;;;;;;;;;;;;;;;4994971;28;3296;-62